Time;durP1;ratioP1;P1;durP2;ratioP2;P2;SDS_P1;SDS_P2;PMS_P1;PMS_P2;Temp;Humidity;BMP_temperature;BMP_pressure;BME280_temperature;BME280_humidity;BME280_pressure;Samples;Min_cycle;Max_cycle;Signal;HPM_P1;HPM_P2
2022/04/17 00:01:47;;;;;;;6.37;4.77;;;;;;;15.72;47.14;96773.25;4875952;29;20276;-86
2022/04/17 00:04:15;;;;;;;5.80;3.90;;;;;;;15.81;47.76;96790.88;4876081;29;20206;-88
2022/04/17 00:06:42;;;;;;;5.10;4.20;;;;;;;15.26;48.97;96748.66;4876117;29;20193;-85
2022/04/17 00:09:10;;;;;;;5.93;4.40;;;;;;;15.34;48.60;96790.69;4875268;29;20199;-85
2022/04/17 00:11:38;;;;;;;5.00;4.40;;;;;;;15.36;48.60;96794.88;4876365;29;20284;-85
2022/04/17 00:14:05;;;;;;;5.43;3.93;;;;;;;15.14;49.29;96767.75;4858390;29;20209;-88
2022/04/17 00:16:32;;;;;;;8.43;4.50;;;;;;;15.06;49.69;96772.66;4877991;29;20196;-92
2022/04/17 00:18:59;;;;;;;5.80;4.60;;;;;;;14.88;49.39;96763.47;4878629;29;20328;-87
2022/04/17 00:21:27;;;;;;;4.90;4.40;;;;;;;14.89;49.61;96759.91;4880269;29;20679;-86
2022/04/17 00:23:53;;;;;;;7.83;4.40;;;;;;;14.83;50.03;96760.31;4877368;29;20211;-86
2022/04/17 00:26:23;;;;;;;6.90;4.80;;;;;;;14.79;50.56;96777.09;4860290;29;20200;-91
2022/04/17 00:28:50;;;;;;;5.07;4.47;;;;;;;14.88;49.89;96785.16;4878766;29;20692;-88
2022/04/17 00:31:17;;;;;;;6.60;4.53;;;;;;;14.77;50.29;96769.41;4845744;29;20204;-85
2022/04/17 00:33:44;;;;;;;5.83;4.57;;;;;;;14.65;50.31;96744.97;4865335;29;20923;-86
2022/04/17 00:36:13;;;;;;;6.37;4.70;;;;;;;14.64;50.08;96734.66;4878596;29;20255;-86
2022/04/17 00:38:40;;;;;;;5.10;4.40;;;;;;;14.91;50.19;96777.13;4880158;29;20236;-86
2022/04/17 00:41:07;;;;;;;5.30;3.90;;;;;;;14.52;50.84;96754.56;4864488;29;20572;-84
2022/04/17 00:43:44;;;;;;;5.43;3.90;;;;;;;14.61;50.60;96755.72;4882287;29;20236;-87
2022/04/17 00:46:11;;;;;;;4.40;3.80;;;;;;;14.63;50.38;96762.47;4867522;29;20255;-85
2022/04/17 00:48:39;;;;;;;5.13;4.30;;;;;;;14.72;50.70;96761.03;4892808;29;20236;-87
2022/04/17 00:51:08;;;;;;;6.60;4.57;;;;;;;14.48;51.16;96747.88;4892179;29;20248;-89
2022/04/17 00:53:37;;;;;;;7.93;4.43;;;;;;;14.44;51.36;96733.38;4874308;29;20199;-89
2022/04/17 00:56:04;;;;;;;10.20;5.20;;;;;;;14.48;51.83;96754.84;4896918;29;20724;-93
2022/04/17 00:58:33;;;;;;;6.37;4.53;;;;;;;14.46;52.05;96752.34;4881821;29;20233;-93
2022/04/17 01:01:00;;;;;;;6.20;4.10;;;;;;;14.56;51.51;96766.44;4898580;29;20218;-96
2022/04/17 01:03:28;;;;;;;5.00;4.50;;;;;;;14.56;51.72;96753.41;4894529;29;20205;-92
2022/04/17 01:05:56;;;;;;;8.20;4.87;;;;;;;14.72;51.53;96760.19;4889783;29;20192;-94
2022/04/17 01:08:22;;;;;;;6.43;4.50;;;;;;;14.64;51.01;96743.31;4889070;29;20248;-95
2022/04/17 01:10:49;;;;;;;6.47;4.67;;;;;;;14.41;51.76;96711.88;4895181;29;20195;-90
2022/04/17 01:13:17;;;;;;;6.57;4.73;;;;;;;14.77;51.84;96753.75;4895989;29;20677;-93
2022/04/17 01:15:44;;;;;;;6.20;5.13;;;;;;;14.43;52.02;96723.03;4884206;29;20178;-93
2022/04/17 01:18:11;;;;;;;6.93;5.47;;;;;;;14.37;52.97;96746.88;4881244;29;20219;-91
2022/04/17 01:20:41;;;;;;;6.60;4.90;;;;;;;14.30;53.32;96750.84;4893205;29;20188;-90
2022/04/17 01:28:42;;;;;;;7.00;6.30;;;;;;;13.88;54.91;96743.97;4885326;29;20595;-88
2022/04/17 01:31:10;;;;;;;8.43;6.13;;;;;;;13.90;55.01;96755.13;4873311;29;20198;-95
2022/04/17 01:33:41;;;;;;;5.80;5.20;;;;;;;13.98;55.63;96762.44;4867462;29;20200;-91
2022/04/17 01:36:08;;;;;;;7.57;5.83;;;;;;;13.92;55.72;96748.06;4883090;29;20202;-94
2022/04/17 01:38:38;;;;;;;9.83;6.03;;;;;;;13.95;55.87;96776.47;4879992;29;20233;-95
2022/04/17 01:41:06;;;;;;;7.17;6.10;;;;;;;13.43;56.35;96715.66;4869559;29;20230;-95
2022/04/17 01:43:33;;;;;;;8.53;6.50;;;;;;;13.65;56.15;96755.84;4895425;29;20190;-89
2022/04/17 01:46:00;;;;;;;8.60;5.93;;;;;;;13.80;56.85;96764.47;4891583;29;20210;-90
2022/04/17 01:48:27;;;;;;;9.77;6.50;;;;;;;13.69;56.59;96746.06;4875359;29;20204;-95
2022/04/17 01:50:55;;;;;;;7.17;6.47;;;;;;;13.83;56.84;96769.44;4858857;29;20761;-88
2022/04/17 01:53:24;;;;;;;8.40;6.37;;;;;;;13.78;56.42;96758.50;4873664;29;20190;-88
2022/04/17 01:55:51;;;;;;;9.57;6.00;;;;;;;13.60;56.60;96728.44;4858364;29;20665;-89
2022/04/17 01:58:18;;;;;;;6.83;5.80;;;;;;;13.83;56.80;96753.84;4857674;29;20674;-92
2022/04/17 02:00:45;;;;;;;6.97;6.10;;;;;;;14.01;56.58;96759.66;4875482;29;20271;-89
2022/04/17 02:03:12;;;;;;;6.13;5.20;;;;;;;13.81;56.62;96753.09;4874635;29;20188;-89
2022/04/17 02:05:39;;;;;;;6.80;6.10;;;;;;;13.83;57.26;96735.63;4876027;29;20207;-88
2022/04/17 02:08:06;;;;;;;7.30;5.77;;;;;;;13.88;56.53;96733.56;4878265;29;20739;-85
2022/04/17 02:10:34;;;;;;;6.73;5.10;;;;;;;13.76;57.05;96739.56;4879918;29;20263;-84
2022/04/17 02:13:01;;;;;;;8.33;5.60;;;;;;;13.82;57.47;96727.00;4880932;29;20556;-85
2022/04/17 02:15:28;;;;;;;6.77;5.07;;;;;;;13.49;57.88;96682.28;4875381;29;20581;-86
2022/04/17 02:17:55;;;;;;;7.47;5.37;;;;;;;13.71;57.83;96725.97;4858378;29;20702;-86
2022/04/17 02:20:22;;;;;;;6.00;5.40;;;;;;;13.48;58.50;96708.38;4860268;29;20289;-88
2022/04/17 02:22:49;;;;;;;5.73;5.03;;;;;;;13.58;58.34;96735.50;4877086;29;20191;-91
2022/04/17 02:25:16;;;;;;;7.73;5.37;;;;;;;13.14;58.97;96677.59;4877725;29;20263;-95
2022/04/17 02:27:44;;;;;;;6.07;5.00;;;;;;;13.32;59.40;96718.06;4875475;29;20202;-93
2022/04/17 02:30:11;;;;;;;5.10;4.53;;;;;;;12.88;59.23;96630.59;4875750;29;20198;-95
2022/04/17 02:32:38;;;;;;;7.17;5.47;;;;;;;13.33;58.09;96704.16;4859461;29;20207;-95
2022/04/17 02:35:05;;;;;;;6.07;5.00;;;;;;;13.43;58.73;96710.44;4865430;29;20731;-90
2022/04/17 02:37:37;;;;;;;4.80;4.33;;;;;;;13.62;58.70;96716.19;4876886;29;20250;-85
2022/04/17 02:40:05;;;;;;;7.07;4.67;;;;;;;13.79;57.98;96715.91;4880356;29;20635;-90
2022/04/17 02:42:32;;;;;;;4.97;4.47;;;;;;;13.94;57.32;96733.19;4880439;29;20258;-96
2022/04/17 02:44:59;;;;;;;5.50;4.93;;;;;;;13.89;57.55;96715.25;4876265;29;20227;-85
2022/04/17 02:47:45;;;;;;;5.23;4.50;;;;;;;13.88;57.19;96723.16;4885608;29;20317;-94
2022/04/17 02:50:15;;;;;;;6.63;4.77;;;;;;;13.76;57.60;96736.97;4857858;29;20321;-94
2022/04/17 02:52:45;;;;;;;7.20;5.00;;;;;;;13.50;57.05;96688.31;4887419;29;20675;-88
2022/04/17 02:55:12;;;;;;;14.93;5.73;;;;;;;13.89;57.03;96730.00;4889501;29;20354;-85
2022/04/17 02:57:39;;;;;;;6.10;5.50;;;;;;;14.11;55.99;96722.53;4886957;29;20198;-86
2022/04/17 03:00:08;;;;;;;7.70;5.77;;;;;;;14.12;55.46;96716.38;4871576;29;20219;-85
2022/04/17 03:05:36;;;;;;;6.10;5.50;;;;;;;14.14;57.09;96740.53;4889279;29;20281;-86
2022/04/17 03:08:11;;;;;;;7.53;4.93;;;;;;;14.12;58.87;96716.38;4898276;29;20202;-88
2022/04/17 03:10:41;;;;;;;6.90;5.50;;;;;;;14.30;59.31;96728.22;4900690;29;20192;-90
2022/04/17 03:13:09;;;;;;;7.50;5.10;;;;;;;14.31;58.87;96736.88;4900220;29;20180;-91
2022/04/17 03:15:38;;;;;;;6.23;4.87;;;;;;;13.70;59.14;96698.31;4900767;29;20191;-86
2022/04/17 03:18:08;;;;;;;6.20;4.03;;;;;;;13.77;58.65;96730.81;4903221;29;20218;-85
2022/04/17 03:20:36;;;;;;;5.47;4.57;;;;;;;13.70;58.89;96735.56;4889032;29;20191;-90
2022/04/17 03:23:05;;;;;;;7.20;5.20;;;;;;;13.60;59.49;96710.22;4878581;29;20192;-93
2022/04/17 03:25:32;;;;;;;6.57;5.60;;;;;;;13.78;62.36;96732.50;4877535;29;20208;-95
2022/04/17 03:28:00;;;;;;;7.57;5.43;;;;;;;13.71;63.09;96718.19;4861834;29;20191;-95
2022/04/17 03:30:27;;;;;;;7.33;5.30;;;;;;;13.46;62.33;96712.84;4862450;29;20725;-96
2022/04/17 03:32:54;;;;;;;6.47;5.63;;;;;;;13.37;62.58;96684.81;4877381;29;20738;-91
2022/04/17 03:35:21;;;;;;;8.07;5.37;;;;;;;13.29;62.08;96713.88;4877812;29;20284;-88
2022/04/17 03:37:48;;;;;;;7.10;5.27;;;;;;;13.32;63.53;96731.91;4876428;29;20210;-85
2022/04/17 03:40:16;;;;;;;8.20;6.27;;;;;;;13.33;64.70;96730.16;4877892;29;20253;-90
2022/04/17 03:42:44;;;;;;;7.30;4.87;;;;;;;12.90;64.54;96704.13;4861400;29;20193;-96
2022/04/17 03:45:14;;;;;;;5.80;5.07;;;;;;;12.67;65.03;96696.03;4877999;29;20284;-86
2022/04/17 03:47:41;;;;;;;6.37;4.90;;;;;;;12.53;65.61;96712.41;4896582;29;20738;-96
2022/04/17 03:50:10;;;;;;;7.63;5.27;;;;;;;12.65;66.71;96744.66;4885273;29;20283;-90
2022/04/17 03:52:42;;;;;;;5.70;5.07;;;;;;;12.63;66.10;96755.13;4882644;29;20207;-86
2022/04/17 03:55:10;;;;;;;6.87;5.67;;;;;;;12.62;66.07;96768.19;4868969;29;20689;-86
2022/04/17 03:57:38;;;;;;;6.10;5.50;;;;;;;12.62;66.89;96766.44;4885605;29;20207;-85
2022/04/17 04:00:07;;;;;;;7.50;6.00;;;;;;;12.45;68.01;96737.16;4885435;29;20256;-85
2022/04/17 04:02:39;;;;;;;6.37;5.30;;;;;;;12.58;66.29;96720.78;4886180;29;20268;-89
2022/04/17 04:05:08;;;;;;;7.70;5.20;;;;;;;12.95;66.35;96761.88;4883615;29;20197;-86
2022/04/17 04:07:36;;;;;;;8.83;6.33;;;;;;;13.29;66.59;96772.88;4881087;29;20255;-89
2022/04/17 04:10:04;;;;;;;7.87;6.03;;;;;;;13.16;68.70;96779.75;4877920;29;20202;-91
2022/04/17 04:12:33;;;;;;;9.20;6.83;;;;;;;12.51;72.13;96761.03;4844654;29;20206;-83
2022/04/17 04:15:00;;;;;;;13.10;8.80;;;;;;;12.26;74.48;96761.59;4863093;29;20219;-90
2022/04/17 04:17:29;;;;;;;8.33;7.40;;;;;;;12.28;75.14;96800.47;4875520;29;20192;-87
2022/04/17 04:19:56;;;;;;;9.83;8.00;;;;;;;12.08;76.21;96748.81;4877552;29;20693;-87
2022/04/17 04:22:24;;;;;;;9.67;7.87;;;;;;;12.40;75.40;96783.34;4880053;29;20192;-96
2022/04/17 04:24:53;;;;;;;12.63;9.10;;;;;;;12.33;76.14;96782.88;4885162;29;20188;-89
2022/04/17 04:30:09;;;;;;;12.67;9.00;;;;;;;12.14;76.83;96758.84;4884724;29;20209;-82
2022/04/17 04:32:37;;;;;;;13.30;9.40;;;;;;;12.15;77.18;96800.31;4895197;29;20496;-86
2022/04/17 04:35:06;;;;;;;12.57;9.47;;;;;;;12.14;78.83;96811.63;4890303;29;20191;-89
2022/04/17 04:37:33;;;;;;;11.60;8.67;;;;;;;11.93;78.34;96768.69;4886369;29;20681;-94
2022/04/17 04:40:00;;;;;;;11.27;8.43;;;;;;;12.10;78.00;96806.66;4878127;29;20748;-87
2022/04/17 04:42:28;;;;;;;10.37;8.13;;;;;;;11.96;78.09;96772.88;4877697;29;20639;-91
2022/04/17 04:47:44;;;;;;;12.47;9.03;;;;;;;12.27;78.58;96823.00;4859193;29;20631;-92
2022/04/17 04:50:11;;;;;;;13.50;10.17;;;;;;;12.27;78.95;96825.59;4860323;29;20234;-93
2022/04/17 04:52:38;;;;;;;11.43;9.43;;;;;;;12.42;78.82;96831.69;4877782;29;20198;-96
2022/04/17 04:55:05;;;;;;;11.10;9.57;;;;;;;12.33;78.74;96834.78;4883820;29;20194;-87
2022/04/17 04:57:35;;;;;;;12.23;9.37;;;;;;;12.18;80.02;96836.47;4874949;29;20199;-84
2022/04/17 05:00:05;;;;;;;13.13;9.90;;;;;;;12.00;81.35;96824.53;4879838;29;21082;-93
2022/04/17 05:02:32;;;;;;;14.67;11.97;;;;;;;11.88;81.88;96832.97;4865860;29;20201;-94
2022/04/17 05:05:00;;;;;;;11.17;9.33;;;;;;;11.76;82.16;96845.78;4866202;29;20200;-95
2022/04/17 05:07:27;;;;;;;11.60;9.83;;;;;;;11.58;83.62;96813.00;4879278;29;20202;-94
2022/04/17 05:09:54;;;;;;;11.13;9.17;;;;;;;11.68;83.19;96814.22;4882567;29;20258;-90
2022/04/17 05:12:22;;;;;;;10.27;8.50;;;;;;;11.81;83.48;96847.19;4868679;29;20197;-93
2022/04/17 05:14:49;;;;;;;14.13;11.23;;;;;;;11.55;83.77;96828.72;4879947;29;20195;-89
2022/04/17 05:17:16;;;;;;;10.13;8.40;;;;;;;11.64;84.51;96855.03;4882596;29;20709;-86
2022/04/17 05:19:43;;;;;;;13.57;9.23;;;;;;;11.66;84.38;96805.66;4875506;29;20241;-84
2022/04/17 05:22:15;;;;;;;12.13;9.37;;;;;;;12.03;82.96;96845.13;4887251;29;20193;-85
2022/04/17 05:24:44;;;;;;;11.40;8.77;;;;;;;12.05;82.14;96856.28;4872295;29;20201;-92
2022/04/17 05:27:12;;;;;;;10.67;8.50;;;;;;;12.14;81.57;96863.53;4895894;29;20250;-89
2022/04/17 05:29:40;;;;;;;10.90;9.10;;;;;;;11.99;81.25;96840.19;4880809;29;20222;-88
2022/04/17 05:32:08;;;;;;;14.07;9.80;;;;;;;11.95;82.45;96846.47;4876613;29;20300;-89
2022/04/17 05:34:36;;;;;;;12.80;9.33;;;;;;;11.93;82.10;96835.34;4873328;29;20270;-91
2022/04/17 05:37:04;;;;;;;10.60;9.20;;;;;;;12.13;83.06;96871.41;4893823;29;20226;-83
2022/04/17 05:39:32;;;;;;;12.33;8.57;;;;;;;12.19;82.72;96863.28;4890458;29;20232;-96
2022/04/17 05:41:59;;;;;;;10.20;7.97;;;;;;;12.16;82.90;96850.47;4875110;29;20690;-84
2022/04/17 05:44:27;;;;;;;9.40;7.83;;;;;;;12.43;81.53;96868.88;4897966;29;20692;-85
2022/04/17 05:46:56;;;;;;;11.30;8.57;;;;;;;12.39;82.02;96868.22;4896652;29;20187;-83
2022/04/17 05:49:23;;;;;;;11.87;9.00;;;;;;;12.51;81.97;96859.72;4894636;29;20228;-83
2022/04/17 05:51:50;;;;;;;9.60;7.60;;;;;;;12.15;81.82;96825.44;4883067;29;21013;-84
2022/04/17 05:54:17;;;;;;;9.73;8.50;;;;;;;12.44;80.90;96853.22;4882898;29;20199;-84
2022/04/17 05:56:45;;;;;;;10.47;8.37;;;;;;;11.89;81.69;96828.63;4893643;29;20206;-84
2022/04/17 05:59:11;;;;;;;9.83;7.53;;;;;;;12.11;81.61;96868.06;4893973;29;20234;-84
2022/04/17 06:01:38;;;;;;;10.70;7.70;;;;;;;12.09;81.76;96852.59;4876976;29;20233;-81
2022/04/17 06:04:05;;;;;;;12.17;8.20;;;;;;;12.10;82.23;96861.19;4872123;29;20201;-93
2022/04/17 06:06:33;;;;;;;11.37;8.13;;;;;;;12.14;81.36;96854.91;4885900;29;20191;-95
2022/04/17 06:09:00;;;;;;;9.47;7.70;;;;;;;12.28;81.15;96855.00;4868348;29;20611;-95
2022/04/17 06:11:27;;;;;;;8.50;7.50;;;;;;;12.41;80.69;96855.97;4881047;29;20197;-88
2022/04/17 06:13:55;;;;;;;11.80;7.93;;;;;;;12.25;81.20;96834.38;4878997;29;20207;-84
2022/04/17 06:16:22;;;;;;;10.37;7.83;;;;;;;11.82;80.95;96829.88;4882977;29;20194;-89
2022/04/17 06:18:49;;;;;;;10.33;8.53;;;;;;;12.01;82.06;96853.91;4885441;29;20730;-87
2022/04/17 06:21:18;;;;;;;10.40;9.10;;;;;;;12.15;82.61;96861.78;4867084;29;20193;-88
2022/04/17 06:23:45;;;;;;;9.87;8.83;;;;;;;12.23;82.17;96859.59;4868123;29;20221;-88
2022/04/17 06:26:14;;;;;;;11.73;8.60;;;;;;;12.24;81.59;96856.09;4885159;29;20194;-86
2022/04/17 06:28:41;;;;;;;12.97;8.93;;;;;;;12.08;82.52;96860.44;4862172;29;20266;-86
2022/04/17 06:31:08;;;;;;;11.43;8.97;;;;;;;12.04;81.63;96857.16;4859599;29;20676;-85
2022/04/17 06:33:37;;;;;;;11.17;8.30;;;;;;;11.95;82.99;96846.47;4862919;29;20257;-83
2022/04/17 06:36:05;;;;;;;13.33;10.20;;;;;;;12.10;82.11;96856.00;4868621;29;20557;-90
2022/04/17 06:38:32;;;;;;;10.30;8.80;;;;;;;12.05;82.54;96851.06;4894261;29;20195;-88
2022/04/17 06:40:59;;;;;;;14.33;10.03;;;;;;;12.23;82.12;96859.59;4882586;29;20214;-84
2022/04/17 06:43:26;;;;;;;16.00;11.90;;;;;;;12.04;82.22;96826.03;4895592;29;20235;-86
2022/04/17 06:45:53;;;;;;;12.53;9.97;;;;;;;12.26;81.59;96838.69;4871247;29;20193;-91
2022/04/17 06:48:22;;;;;;;12.90;10.20;;;;;;;12.27;82.33;96856.75;4883848;29;20228;-90
2022/04/17 06:50:52;;;;;;;13.00;10.00;;;;;;;12.06;82.49;96851.88;4886301;29;20210;-85
2022/04/17 06:53:20;;;;;;;14.60;11.73;;;;;;;12.06;83.39;96836.31;4888099;29;20185;-84
2022/04/17 06:55:48;;;;;;;11.83;9.70;;;;;;;12.21;82.87;96851.91;4887681;29;20196;-94
2022/04/17 06:58:17;;;;;;;14.40;11.63;;;;;;;12.17;83.61;96846.97;4889749;29;20207;-91
2022/04/17 07:00:45;;;;;;;16.77;13.67;;;;;;;12.20;82.79;96833.78;4889866;29;20226;-84
2022/04/17 07:03:14;;;;;;;16.50;11.83;;;;;;;12.18;82.61;96825.25;4884204;29;20245;-85
2022/04/17 07:05:42;;;;;;;11.87;9.97;;;;;;;11.90;83.28;96843.25;4886075;29;20196;-88
2022/04/17 07:08:09;;;;;;;12.97;10.87;;;;;;;11.84;83.36;96799.50;4889610;29;20202;-85
2022/04/17 07:10:38;;;;;;;13.63;10.67;;;;;;;12.07;83.66;96825.03;4885894;29;20194;-95
2022/04/17 07:13:14;;;;;;;12.00;10.23;;;;;;;12.27;82.78;96835.97;4900264;29;20183;-94
2022/04/17 07:15:42;;;;;;;12.30;9.50;;;;;;;12.33;82.08;96834.78;4904728;29;20173;-84
2022/04/17 07:18:09;;;;;;;13.37;10.23;;;;;;;12.38;83.64;96803.38;4888955;29;20204;-88
2022/04/17 07:20:37;;;;;;;13.00;10.53;;;;;;;12.47;82.36;96821.06;4883600;29;20223;-86
2022/04/17 07:23:06;;;;;;;12.47;10.57;;;;;;;12.62;80.98;96818.41;4905448;29;20197;-85
2022/04/17 07:25:33;;;;;;;12.50;10.33;;;;;;;12.34;79.95;96786.31;4904071;29;20178;-87
2022/04/17 07:28:00;;;;;;;12.13;10.07;;;;;;;12.44;80.50;96822.06;4889504;29;20246;-87
2022/04/17 07:30:30;;;;;;;14.53;10.90;;;;;;;12.32;80.88;96804.56;4902801;29;20189;-86
2022/04/17 07:32:59;;;;;;;13.00;11.20;;;;;;;12.55;81.74;96832.66;4887372;29;20197;-91
2022/04/17 07:35:28;;;;;;;13.07;11.13;;;;;;;12.68;82.23;96825.84;4901912;29;20250;-90
2022/04/17 07:38:04;;;;;;;14.50;11.57;;;;;;;12.75;83.66;96827.19;4901602;29;20186;-86
2022/04/17 07:40:33;;;;;;;14.33;10.97;;;;;;;12.62;83.35;96815.81;4885330;29;20252;-86
2022/04/17 07:43:03;;;;;;;13.10;11.20;;;;;;;12.75;82.86;96842.78;4902512;29;20197;-87
2022/04/17 07:45:32;;;;;;;19.43;12.47;;;;;;;12.72;82.54;96816.09;4882564;29;20195;-86
2022/04/17 07:47:59;;;;;;;12.80;10.63;;;;;;;12.60;82.42;96786.47;4897485;29;20191;-87
2022/04/17 07:50:29;;;;;;;16.67;12.37;;;;;;;12.81;83.07;96825.97;4874402;29;20243;-93
2022/04/17 07:52:59;;;;;;;21.67;14.93;;;;;;;12.66;84.45;96791.31;4883503;29;20197;-84
2022/04/17 07:55:27;;;;;;;15.87;12.50;;;;;;;12.88;83.64;96838.50;4877346;29;20201;-88
2022/04/17 07:58:06;;;;;;;18.03;13.07;;;;;;;12.97;82.79;96831.94;4875905;29;20191;-85
2022/04/17 08:00:44;;;;;;;15.13;12.33;;;;;;;13.12;82.13;96820.69;4859154;29;20337;-86
2022/04/17 08:06:05;;;;;;;15.57;10.97;;;;;;;12.94;80.68;96801.78;4876927;29;20261;-87
2022/04/17 08:08:34;;;;;;;13.80;10.33;;;;;;;12.35;81.82;96800.94;4878613;29;20231;-85
2022/04/17 08:11:04;;;;;;;14.20;11.17;;;;;;;12.30;82.54;96754.50;4877614;29;20198;-90
2022/04/17 08:13:31;;;;;;;12.63;10.47;;;;;;;12.54;82.71;96797.22;4877303;29;20209;-87
2022/04/17 08:16:00;;;;;;;13.57;10.57;;;;;;;12.45;82.16;96756.19;4859606;29;20202;-86
2022/04/17 08:18:27;;;;;;;12.27;10.03;;;;;;;12.38;83.58;96749.69;4862736;29;20194;-84
2022/04/17 08:20:55;;;;;;;11.23;9.70;;;;;;;12.08;84.70;96735.84;4880926;29;20225;-82
2022/04/17 08:23:26;;;;;;;13.03;10.67;;;;;;;12.64;84.77;96767.19;4860357;29;20209;-83
2022/04/17 08:25:53;;;;;;;13.03;10.07;;;;;;;12.75;83.64;96733.63;4860172;29;20247;-84
2022/04/17 08:28:20;;;;;;;12.50;10.40;;;;;;;13.05;83.95;96763.03;4878128;29;20197;-83
2022/04/17 08:30:49;;;;;;;14.83;9.67;;;;;;;13.15;83.02;96767.69;4891929;29;20197;-86
2022/04/17 08:33:17;;;;;;;9.33;7.90;;;;;;;12.99;81.95;96736.53;4895294;29;20234;-89
2022/04/17 08:35:46;;;;;;;11.10;8.40;;;;;;;13.04;81.96;96748.34;4889135;29;20221;-87
2022/04/17 08:38:14;;;;;;;14.33;11.13;;;;;;;13.31;82.40;96758.03;4895841;29;20187;-86
2022/04/17 08:40:41;;;;;;;12.93;10.23;;;;;;;13.47;82.03;96771.75;4894255;29;20349;-89
2022/04/17 08:43:10;;;;;;;12.33;8.90;;;;;;;13.51;81.24;96763.66;4864797;29;20208;-90
2022/04/17 08:55:22;;;;;;;13.37;10.20;;;;;;;13.64;81.25;96780.19;5171095;24;20426;-84
2022/04/17 08:57:51;;;;;;;12.13;9.37;;;;;;;13.68;81.69;96778.25;4884426;29;20279;-91
2022/04/17 09:00:20;;;;;;;10.77;8.87;;;;;;;13.62;82.29;96761.22;4887079;29;20307;-85
2022/04/17 09:02:50;;;;;;;12.23;9.77;;;;;;;13.59;82.41;96769.22;4890703;29;20200;-86
2022/04/17 09:05:19;;;;;;;12.90;9.63;;;;;;;13.29;83.95;96732.09;4892499;29;20256;-86
2022/04/17 09:08:30;;;;;;;10.43;7.90;;;;;;;13.32;83.34;96767.47;4865332;29;20778;-84
2022/04/17 09:11:51;;;;;;;9.73;7.70;;;;;;;13.05;83.85;96770.81;4878428;29;20198;-88
2022/04/17 09:15:11;;;;;;;11.23;9.50;;;;;;;13.16;84.12;96769.34;4880474;29;20221;-83
2022/04/17 09:18:34;;;;;;;12.60;9.93;;;;;;;13.29;84.49;96760.69;4881591;29;20215;-92
2022/04/17 09:21:56;;;;;;;12.70;8.87;;;;;;;13.21;83.17;96752.53;4880428;29;20247;-85
2022/04/17 09:25:22;;;;;;;12.90;9.83;;;;;;;13.11;84.90;96755.81;4873936;29;20208;-83
2022/04/17 09:28:53;;;;;;;11.43;9.13;;;;;;;13.12;84.24;96740.09;4874758;29;20200;-83
2022/04/17 09:31:57;;;;;;;11.70;9.10;;;;;;;13.06;84.44;96754.28;4875378;29;20214;-82
2022/04/17 09:35:27;;;;;;;7.63;6.50;;;;;;;13.11;82.83;96748.81;4872572;29;20197;-84
2022/04/17 09:38:54;;;;;;;9.07;6.77;;;;;;;13.16;83.91;96758.94;4865933;29;20209;-83
2022/04/17 09:42:15;;;;;;;9.97;7.00;;;;;;;12.98;83.43;96751.28;4877005;29;20203;-89
2022/04/17 09:45:37;;;;;;;8.77;6.30;;;;;;;12.97;81.38;96757.41;4895005;29;20186;-87
2022/04/17 09:49:00;;;;;;;9.10;6.47;;;;;;;12.93;82.93;96747.28;4899606;29;20244;-83
2022/04/17 09:52:27;;;;;;;6.97;5.80;;;;;;;13.01;82.16;96758.06;4888868;29;20249;-87
2022/04/17 09:55:48;;;;;;;7.20;5.53;;;;;;;13.04;80.56;96748.34;4874139;29;20236;-85
2022/04/17 09:59:11;;;;;;;5.27;4.20;;;;;;;12.90;78.52;96753.50;4871873;29;20269;-92
2022/04/17 10:02:34;;;;;;;5.53;3.97;;;;;;;12.89;80.32;96746.66;4856846;29;20197;-82
2022/04/17 10:05:58;;;;;;;5.60;4.63;;;;;;;12.98;81.40;96740.06;4862147;29;20200;-82
2022/04/17 10:09:24;;;;;;;7.00;5.13;;;;;;;12.88;80.02;96728.56;4861103;29;20261;-82
2022/04/17 10:12:46;;;;;;;12.83;9.20;;;;;;;12.93;79.33;96726.50;4887115;29;20183;-81
2022/04/17 10:16:13;;;;;;;5.30;4.40;;;;;;;12.61;80.56;96707.59;4888455;29;20198;-96
2022/04/17 10:19:34;;;;;;;4.97;4.43;;;;;;;12.79;82.51;96716.94;4895894;29;20187;-87
2022/04/17 10:23:01;;;;;;;10.70;8.77;;;;;;;12.88;82.52;96682.59;4889987;29;20272;-94
2022/04/17 10:26:26;;;;;;;11.23;9.67;;;;;;;12.47;83.65;96689.41;4898110;29;20270;-83
2022/04/17 10:29:48;;;;;;;8.30;6.77;;;;;;;12.72;84.63;96691.38;4902823;29;20199;-83
2022/04/17 10:33:12;;;;;;;4.37;3.40;;;;;;;12.85;82.62;96697.53;4900482;29;20275;-82
2022/04/17 10:36:21;;;;;;;4.13;3.63;;;;;;;12.95;82.41;96689.09;4899023;29;20208;-84
2022/04/17 10:39:58;;;;;;;5.67;3.90;;;;;;;12.81;83.56;96689.09;4896762;29;20194;-82
2022/04/17 10:43:20;;;;;;;4.17;3.27;;;;;;;12.83;81.32;96684.63;4897569;29;20191;-83
2022/04/17 10:46:47;;;;;;;10.70;6.23;;;;;;;12.71;82.81;96659.41;4896136;29;20187;-83
2022/04/17 10:50:12;;;;;;;3.23;2.90;;;;;;;12.71;83.34;96700.97;4894476;29;20201;-82
2022/04/17 10:53:44;;;;;;;4.23;2.90;;;;;;;12.76;82.82;96703.28;4890377;29;20236;-85
2022/04/17 10:56:55;;;;;;;3.60;2.50;;;;;;;12.77;82.22;96702.34;4891395;29;20260;-93
2022/04/17 11:00:14;;;;;;;2.90;2.60;;;;;;;12.66;83.58;96702.16;4895028;29;20232;-93
2022/04/17 11:03:36;;;;;;;5.83;3.87;;;;;;;12.80;83.58;96702.16;4900884;29;20207;-95
2022/04/17 11:07:03;;;;;;;3.63;2.47;;;;;;;12.76;82.29;96701.50;4889767;29;20202;-84
2022/04/17 11:10:38;;;;;;;3.67;3.10;;;;;;;12.54;82.16;96693.34;4864329;29;20192;-84
2022/04/17 11:13:59;;;;;;;8.07;3.40;;;;;;;12.45;82.01;96695.59;4876358;29;20207;-85
2022/04/17 11:17:35;;;;;;;5.47;2.90;;;;;;;12.56;82.38;96707.06;4878052;29;20257;-85
2022/04/17 11:20:56;;;;;;;5.77;4.20;;;;;;;12.51;80.72;96721.25;4878209;29;20242;-84
2022/04/17 11:24:21;;;;;;;3.10;2.77;;;;;;;12.48;80.81;96724.84;4891996;29;20206;-87
2022/04/17 11:27:31;;;;;;;3.47;2.80;;;;;;;12.06;81.37;96672.81;4889660;29;20242;-86
2022/04/17 11:30:18;;;;;;;5.23;3.90;;;;;;;12.35;79.74;96712.66;4888349;29;20198;-82
2022/04/17 11:33:38;;;;;;;6.03;3.60;;;;;;;12.27;79.62;96716.56;4877624;29;20202;-86
2022/04/17 11:36:59;;;;;;;3.70;3.00;;;;;;;12.23;78.55;96720.25;4897108;29;20200;-88
2022/04/17 11:40:09;;;;;;;5.17;3.40;;;;;;;12.23;78.39;96719.41;4883003;29;20213;-87
2022/04/17 11:43:30;;;;;;;3.97;3.20;;;;;;;12.24;78.04;96711.53;4901191;29;20185;-86
2022/04/17 11:46:55;;;;;;;5.30;4.03;;;;;;;12.42;77.88;96719.19;4897346;29;20246;-83
2022/04/17 11:50:21;;;;;;;5.93;3.70;;;;;;;12.35;76.39;96716.09;4898924;29;20282;-85
2022/04/17 11:53:45;;;;;;;10.30;2.80;;;;;;;12.14;77.32;96715.56;4886247;29;20190;-85
2022/04/17 11:57:13;;;;;;;5.53;3.67;;;;;;;11.88;76.98;96702.41;4886748;29;20225;-86
2022/04/17 12:00:37;;;;;;;6.73;3.53;;;;;;;12.10;78.15;96708.03;4883445;29;20735;-83
2022/04/17 12:03:59;;;;;;;17.77;3.97;;;;;;;12.07;77.98;96705.63;4880081;29;20693;-82
2022/04/17 12:07:22;;;;;;;4.50;2.37;;;;;;;12.03;76.40;96717.13;4883071;29;20301;-81
2022/04/17 12:15:15;;;;;;;5.47;2.90;;;;;;;10.87;75.91;96540.41;4835939;29;20211;-82
2022/04/17 12:19:37;;;;;;;5.10;3.20;;;;;;;11.60;76.66;96715.22;4792341;29;20256;-84
2022/04/17 12:22:58;;;;;;;4.00;3.60;;;;;;;11.54;78.64;96723.31;4789906;29;20249;-82
2022/04/17 12:30:31;;;;;;;3.83;3.43;;;;;;;10.75;79.75;96603.22;4813505;29;20211;-83
2022/04/17 12:39:38;;;;;;;4.73;3.47;;;;;;;11.46;80.97;96708.16;4721290;30;20210;-83
2022/04/17 12:43:02;;;;;;;5.10;3.30;;;;;;;11.47;80.92;96699.47;4761770;29;20231;-86
2022/04/17 12:45:31;;;;;;;5.30;4.23;;;;;;;11.42;81.56;96702.31;4858450;29;20231;-83
2022/04/17 12:48:40;;;;;;;5.43;3.93;;;;;;;11.24;81.04;96674.81;4845149;29;20241;-84
2022/04/17 12:54:53;;;;;;;4.50;3.70;;;;;;;11.10;81.14;96677.31;4854663;29;20241;-83
2022/04/17 12:57:25;;;;;;;3.53;2.63;;;;;;;10.93;82.04;96671.34;4856413;29;20199;-83
2022/04/17 12:59:55;;;;;;;3.63;2.77;;;;;;;11.05;81.91;96683.63;4855805;29;20237;-82
2022/04/17 13:02:25;;;;;;;2.90;2.60;;;;;;;10.82;82.61;96652.94;4851224;29;20237;-86
2022/04/17 13:05:02;;;;;;;3.97;2.93;;;;;;;10.86;82.97;96673.41;4849704;29;20229;-91
2022/04/17 13:07:51;;;;;;;4.50;2.10;;;;;;;10.54;75.95;96676.84;4836802;29;20202;-81
2022/04/17 13:10:30;;;;;;;2.03;1.40;;;;;;;10.49;71.63;96663.28;4857370;29;20677;-82
2022/04/17 13:13:09;;;;;;;3.23;1.27;;;;;;;9.96;70.61;96654.78;4874891;29;20223;-83
2022/04/17 13:20:22;;;;;;;2.57;0.90;;;;;;;9.22;75.22;96646.31;4819300;29;20278;-84